createdAt,value
2022-11-25T00:01:36.417Z,4.40
2022-11-25T00:04:05.086Z,4.30
2022-11-25T00:06:37.087Z,4.20
2022-11-25T00:09:07.442Z,4.20
2022-11-25T00:11:38.109Z,4.20
2022-11-25T00:14:07.457Z,4.20
2022-11-25T00:16:36.177Z,4.30
2022-11-25T00:19:05.168Z,4.20
2022-11-25T00:21:36.179Z,4.10
2022-11-25T00:24:06.818Z,4.10
2022-11-25T00:26:37.509Z,4.20
2022-11-25T00:29:08.856Z,4.20
2022-11-25T00:31:42.003Z,4.10
2022-11-25T00:34:14.258Z,4.10
2022-11-25T00:36:44.278Z,4.10
2022-11-25T00:39:14.572Z,4.10
2022-11-25T00:42:01.335Z,4.10
2022-11-25T00:44:40.679Z,4.00
2022-11-25T00:47:12.006Z,3.90
2022-11-25T00:49:41.729Z,3.90
2022-11-25T00:52:15.091Z,4.00
2022-11-25T00:54:44.838Z,4.00
2022-11-25T00:57:13.707Z,4.00
2022-11-25T00:59:42.437Z,4.00
2022-11-25T01:02:12.356Z,4.00
2022-11-25T01:04:41.398Z,4.00
2022-11-25T01:07:11.382Z,4.00
2022-11-25T01:09:40.304Z,4.00
2022-11-25T01:12:08.980Z,4.00
2022-11-25T01:14:37.835Z,4.00
2022-11-25T01:17:06.826Z,4.10
2022-11-25T01:19:38.490Z,4.10
2022-11-25T01:22:07.147Z,4.10
2022-11-25T01:24:37.272Z,4.10
2022-11-25T01:27:06.773Z,4.20
2022-11-25T01:29:35.227Z,4.20
2022-11-25T01:32:03.853Z,4.20
2022-11-25T01:34:34.717Z,4.20
2022-11-25T01:37:03.748Z,4.30
2022-11-25T01:39:33.421Z,4.30
2022-11-25T01:42:03.975Z,4.30
2022-11-25T01:44:34.225Z,4.40
2022-11-25T01:47:08.198Z,4.40
2022-11-25T01:49:42.344Z,4.30
2022-11-25T01:52:18.227Z,4.20
2022-11-25T01:54:52.287Z,4.20
2022-11-25T01:57:26.058Z,4.20
2022-11-25T01:59:57.509Z,4.20
2022-11-25T02:02:26.427Z,4.20
2022-11-25T02:04:55.117Z,4.20
2022-11-25T02:07:29.253Z,4.10
2022-11-25T02:09:58.056Z,4.10
2022-11-25T02:12:29.657Z,4.10
2022-11-25T02:15:00.025Z,4.10
2022-11-25T02:17:29.256Z,4.00
2022-11-25T02:20:04.067Z,4.00
2022-11-25T02:22:47.451Z,4.00
2022-11-25T02:25:23.745Z,4.00
2022-11-25T02:27:56.647Z,3.90
2022-11-25T02:30:25.257Z,3.90
2022-11-25T02:32:53.888Z,3.90
2022-11-25T02:35:32.267Z,3.90
2022-11-25T02:38:06.468Z,3.90
2022-11-25T02:40:41.910Z,3.90
2022-11-25T02:43:10.597Z,3.90
2022-11-25T02:45:56.944Z,3.90
2022-11-25T02:48:45.727Z,3.90
2022-11-25T02:51:17.197Z,3.90
2022-11-25T02:53:46.287Z,4.00
2022-11-25T02:56:17.408Z,3.90
2022-11-25T02:58:46.376Z,3.90
2022-11-25T03:01:15.155Z,3.90
2022-11-25T03:03:43.736Z,3.90
2022-11-25T03:06:12.319Z,3.90
2022-11-25T03:08:40.965Z,3.90
2022-11-25T03:11:09.727Z,4.00
2022-11-25T03:13:39.976Z,3.90
2022-11-25T03:16:09.115Z,3.90
2022-11-25T03:18:38.271Z,3.90
2022-11-25T03:21:07.506Z,4.00
2022-11-25T03:23:35.975Z,4.00
2022-11-25T03:26:07.986Z,4.00
2022-11-25T03:28:36.457Z,4.00
2022-11-25T03:31:11.493Z,4.00
2022-11-25T03:33:40.323Z,4.00
2022-11-25T03:36:09.531Z,4.00
2022-11-25T03:38:38.019Z,4.00
2022-11-25T03:41:06.971Z,4.00
2022-11-25T03:43:35.934Z,4.00
2022-11-25T03:46:05.933Z,4.00
2022-11-25T03:48:34.531Z,4.00
2022-11-25T03:51:03.140Z,4.00
2022-11-25T03:53:31.608Z,4.00
2022-11-25T03:56:00.708Z,3.90
2022-11-25T03:58:29.268Z,3.90
2022-11-25T04:04:47.798Z,4.00
2022-11-25T04:07:16.342Z,4.00
2022-11-25T04:09:44.906Z,4.00
2022-11-25T04:12:31.336Z,3.90
2022-11-25T04:14:59.916Z,4.00
2022-11-25T04:17:28.478Z,4.00
2022-11-25T04:19:58.367Z,4.00
2022-11-25T04:22:26.928Z,4.00
2022-11-25T04:24:55.437Z,4.00
2022-11-25T04:27:23.973Z,4.00
2022-11-25T04:29:53.179Z,4.00
2022-11-25T04:32:21.728Z,4.10
2022-11-25T04:34:50.330Z,4.20
2022-11-25T04:37:20.416Z,4.20
2022-11-25T04:39:49.068Z,4.20
2022-11-25T04:42:34.174Z,4.30
2022-11-25T04:47:52.552Z,4.20
2022-11-25T04:50:23.371Z,4.10
2022-11-25T04:52:53.298Z,4.10
2022-11-25T04:55:21.801Z,4.10
2022-11-25T04:57:50.318Z,4.10
2022-11-25T05:00:19.248Z,4.10
2022-11-25T05:02:47.782Z,4.20
2022-11-25T05:05:16.467Z,4.20
2022-11-25T05:07:44.976Z,4.30
2022-11-25T05:10:14.996Z,4.40
2022-11-25T05:12:43.537Z,4.40
2022-11-25T05:15:12.908Z,4.50
2022-11-25T05:17:41.738Z,4.50
2022-11-25T05:20:12.318Z,4.60
2022-11-25T05:22:40.869Z,4.70
2022-11-25T05:25:10.932Z,4.70
2022-11-25T05:27:40.837Z,4.80
2022-11-25T05:30:10.678Z,4.80
2022-11-25T05:32:40.678Z,4.90
2022-11-25T05:35:09.879Z,5.00
2022-11-25T05:37:38.376Z,5.00
2022-11-25T05:40:08.232Z,5.00
2022-11-25T05:42:36.728Z,5.00
2022-11-25T05:45:07.847Z,5.10
2022-11-25T05:47:36.367Z,5.10
2022-11-25T05:50:05.128Z,5.10
2022-11-25T05:52:34.218Z,5.20
2022-11-25T05:55:03.290Z,5.20
2022-11-25T05:57:32.639Z,5.20
2022-11-25T06:00:01.119Z,5.20
2022-11-25T06:02:31.225Z,5.30
2022-11-25T06:04:59.777Z,5.30
2022-11-25T06:07:28.297Z,5.30
2022-11-25T06:10:01.600Z,5.30
2022-11-25T06:12:31.699Z,5.40
2022-11-25T06:15:00.260Z,5.40
2022-11-25T06:17:30.201Z,5.50
2022-11-25T06:19:58.779Z,5.50
2022-11-25T06:22:27.312Z,5.50
2022-11-25T06:25:01.835Z,5.60
2022-11-25T06:27:50.431Z,5.60
2022-11-25T06:30:21.749Z,5.60
2022-11-25T06:32:51.718Z,5.70
2022-11-25T06:35:20.344Z,5.70
2022-11-25T06:37:49.071Z,5.70
2022-11-25T06:40:17.825Z,5.70
2022-11-25T06:42:46.339Z,5.70
2022-11-25T06:45:14.917Z,5.70
2022-11-25T06:47:43.578Z,5.70
2022-11-25T06:50:13.706Z,5.80
2022-11-25T06:52:42.168Z,5.80
2022-11-25T06:55:11.129Z,5.80
2022-11-25T06:57:39.689Z,5.80
2022-11-25T07:00:09.508Z,5.90
2022-11-25T07:02:42.801Z,5.80
2022-11-25T07:05:14.130Z,5.90
2022-11-25T07:07:42.760Z,5.90
2022-11-25T07:10:12.137Z,6.00
2022-11-25T07:12:40.847Z,6.00
2022-11-25T07:15:09.860Z,6.00
2022-11-25T07:17:38.418Z,6.00
2022-11-25T07:20:08.398Z,6.10
2022-11-25T07:22:38.328Z,6.10
2022-11-25T07:25:09.576Z,6.10
2022-11-25T07:27:38.219Z,6.10
2022-11-25T07:31:09.317Z,6.20
2022-11-25T07:32:57.526Z,6.20
2022-11-25T07:35:26.352Z,6.20
2022-11-25T07:37:56.376Z,6.20
2022-11-25T07:40:24.999Z,6.20
2022-11-25T07:42:53.740Z,6.20
2022-11-25T07:45:24.549Z,6.20
2022-11-25T07:47:53.159Z,6.20
2022-11-25T07:50:21.998Z,6.30
2022-11-25T07:52:50.709Z,6.30
2022-11-25T07:55:20.750Z,6.40
2022-11-25T07:57:49.279Z,6.40
2022-11-25T08:00:18.738Z,6.40
2022-11-25T08:02:47.400Z,6.40
2022-11-25T08:05:16.210Z,6.40
2022-11-25T08:07:44.948Z,6.40
2022-11-25T08:10:13.950Z,6.40
2022-11-25T08:12:43.952Z,6.40
2022-11-25T08:15:13.029Z,6.40
2022-11-25T08:17:41.534Z,6.40
2022-11-25T08:20:10.809Z,6.40
2022-11-25T08:22:39.319Z,6.50
2022-11-25T08:25:09.408Z,6.50
2022-11-25T08:27:37.928Z,6.50
2022-11-25T08:30:09.956Z,6.50
2022-11-25T08:32:39.831Z,6.50
2022-11-25T08:35:09.541Z,6.50
2022-11-25T08:37:38.109Z,6.50
2022-11-25T08:40:07.813Z,6.50
2022-11-25T08:42:36.409Z,6.50
2022-11-25T08:45:06.530Z,6.50
2022-11-25T08:47:36.529Z,6.50
2022-11-25T08:50:08.423Z,6.50
2022-11-25T08:52:36.894Z,6.60
2022-11-25T08:55:06.046Z,6.60
2022-11-25T08:57:34.840Z,6.60
2022-11-25T09:00:04.241Z,6.60
2022-11-25T09:02:32.850Z,6.60
2022-11-25T09:05:02.921Z,6.70
2022-11-25T09:07:31.467Z,6.60
2022-11-25T09:10:00.126Z,6.60
2022-11-25T09:12:28.769Z,6.70
2022-11-25T09:14:57.291Z,6.70
2022-11-25T09:17:25.898Z,6.70
2022-11-25T09:19:54.409Z,6.70
2022-11-25T09:22:24.476Z,6.80
2022-11-25T09:24:52.924Z,6.70
2022-11-25T09:27:21.416Z,6.70
2022-11-25T09:29:50.068Z,6.70
2022-11-25T09:32:18.709Z,6.80
2022-11-25T09:34:47.370Z,6.80
2022-11-25T09:37:16.003Z,6.90
2022-11-25T09:39:45.969Z,6.90
2022-11-25T09:42:46.536Z,6.90
2022-11-25T09:45:38.939Z,7.00
2022-11-25T09:48:24.469Z,7.00
2022-11-25T09:51:05.662Z,7.00
2022-11-25T09:53:44.190Z,7.10
2022-11-25T09:56:22.771Z,7.10
2022-11-25T09:58:57.339Z,7.20
2022-11-25T10:01:27.754Z,7.20
2022-11-25T10:04:02.333Z,7.30
2022-11-25T10:06:34.362Z,7.30
2022-11-25T10:09:05.655Z,7.30
2022-11-25T10:11:52.529Z,7.40
2022-11-25T10:14:31.207Z,7.40
2022-11-25T10:17:08.680Z,7.40
2022-11-25T10:19:52.115Z,7.40
2022-11-25T10:22:27.421Z,7.40
2022-11-25T10:25:00.242Z,7.40
2022-11-25T10:27:39.838Z,7.50
2022-11-25T10:30:17.440Z,7.50
2022-11-25T10:32:50.204Z,7.50
2022-11-25T10:35:31.236Z,7.50
2022-11-25T10:38:03.379Z,7.50
2022-11-25T10:40:32.165Z,7.50
2022-11-25T10:43:04.181Z,7.50
2022-11-25T10:45:40.724Z,7.50
2022-11-25T10:48:23.389Z,7.50
2022-11-25T10:51:12.099Z,7.50
2022-11-25T10:53:40.653Z,7.50
2022-11-25T10:56:18.241Z,7.50
2022-11-25T10:58:48.436Z,7.60
2022-11-25T11:01:22.207Z,7.60
2022-11-25T11:03:54.472Z,7.60
2022-11-25T11:06:34.129Z,7.60
2022-11-25T11:09:02.793Z,7.60
2022-11-25T11:11:31.785Z,7.60
2022-11-25T11:14:14.956Z,7.70
2022-11-25T11:16:45.653Z,7.80
2022-11-25T11:19:25.008Z,7.90
2022-11-25T11:21:54.098Z,8.00
2022-11-25T11:24:29.547Z,8.00
2022-11-25T11:27:16.153Z,8.10
2022-11-25T11:29:46.119Z,8.20
2022-11-25T11:32:24.521Z,8.20
2022-11-25T11:35:04.479Z,8.20
2022-11-25T11:37:44.320Z,8.30
2022-11-25T11:40:32.174Z,8.40
2022-11-25T11:43:13.330Z,8.40
2022-11-25T11:46:01.513Z,8.40
2022-11-25T11:48:39.749Z,8.40
2022-11-25T11:51:21.719Z,8.50
2022-11-25T11:54:02.129Z,8.60
2022-11-25T11:56:38.439Z,8.70
2022-11-25T11:59:25.525Z,8.70
2022-11-25T12:02:12.401Z,8.70
2022-11-25T12:04:45.639Z,8.70
2022-11-25T12:07:22.575Z,8.70
2022-11-25T12:09:55.208Z,8.70
2022-11-25T12:12:30.944Z,8.60
2022-11-25T12:15:07.673Z,8.70
2022-11-25T12:17:45.027Z,8.70
2022-11-25T12:20:20.228Z,8.70
2022-11-25T12:22:53.887Z,8.70
2022-11-25T12:25:25.355Z,8.60
2022-11-25T12:28:00.389Z,8.70
2022-11-25T12:30:35.305Z,8.70
2022-11-25T12:33:12.291Z,8.60
2022-11-25T12:35:50.438Z,8.60
2022-11-25T12:38:28.648Z,8.60
2022-11-25T12:41:04.456Z,8.60
2022-11-25T12:43:41.528Z,8.60
2022-11-25T12:46:20.444Z,8.70
2022-11-25T12:48:50.617Z,8.70
2022-11-25T12:51:39.078Z,8.70
2022-11-25T12:54:20.959Z,8.70
2022-11-25T12:57:10.149Z,8.70
2022-11-25T13:00:25.420Z,8.90
2022-11-25T13:03:36.109Z,9.00
2022-11-25T13:06:32.241Z,9.10
2022-11-25T13:09:07.149Z,9.20
2022-11-25T13:12:08.733Z,9.20
2022-11-25T13:15:06.757Z,9.20
2022-11-25T13:17:41.021Z,9.20
2022-11-25T13:20:46.154Z,9.20
2022-11-25T13:23:31.134Z,9.10
2022-11-25T13:26:37.862Z,9.10
2022-11-25T13:29:43.276Z,9.10
2022-11-25T13:32:37.147Z,9.10
2022-11-25T13:35:33.339Z,9.10
2022-11-25T13:38:02.022Z,9.10
2022-11-25T13:40:40.897Z,9.10
2022-11-25T13:43:23.870Z,9.10
2022-11-25T13:45:52.708Z,9.10
2022-11-25T13:48:23.618Z,9.10
2022-11-25T13:51:13.306Z,9.10
2022-11-25T13:53:42.270Z,9.10
2022-11-25T13:56:31.487Z,9.10
2022-11-25T13:59:36.392Z,9.00
2022-11-25T14:02:31.995Z,9.10
2022-11-25T14:05:06.307Z,9.10
2022-11-25T14:07:43.766Z,9.00
2022-11-25T14:10:27.909Z,9.00
2022-11-25T14:13:22.231Z,9.00
2022-11-25T14:16:07.213Z,9.00
2022-11-25T14:22:12.382Z,9.00
2022-11-25T14:24:44.527Z,8.90
2022-11-25T14:27:18.099Z,8.90
2022-11-25T14:29:53.449Z,8.90
2022-11-25T14:32:25.830Z,8.90
2022-11-25T14:35:01.281Z,8.90
2022-11-25T14:37:38.250Z,8.90
2022-11-25T14:40:13.458Z,8.90
2022-11-25T14:42:46.460Z,8.90
2022-11-25T14:45:29.709Z,8.90
2022-11-25T14:47:58.980Z,8.90
2022-11-25T14:50:34.822Z,8.90
2022-11-25T14:53:08.132Z,8.90
2022-11-25T14:55:38.139Z,8.80
2022-11-25T14:58:06.890Z,8.80
2022-11-25T15:00:50.709Z,8.80
2022-11-25T15:03:21.552Z,8.80
2022-11-25T15:05:57.248Z,8.70
2022-11-25T15:08:26.979Z,8.70
2022-11-25T15:10:57.778Z,8.70
2022-11-25T15:13:34.372Z,8.70
2022-11-25T15:16:11.011Z,8.70
2022-11-25T15:18:41.712Z,8.70
2022-11-25T15:21:16.793Z,8.70
2022-11-25T15:23:45.619Z,8.70
2022-11-25T15:26:19.901Z,8.70
2022-11-25T15:28:49.107Z,8.70
2022-11-25T15:31:22.138Z,8.70
2022-11-25T15:36:43.068Z,8.60
2022-11-25T15:39:25.588Z,8.60
2022-11-25T15:41:56.610Z,8.60
2022-11-25T15:44:28.797Z,8.60
2022-11-25T15:47:02.559Z,8.60
2022-11-25T15:49:31.204Z,8.60
2022-11-25T15:52:04.720Z,8.60
2022-11-25T15:54:39.500Z,8.60
2022-11-25T15:57:18.589Z,8.60
2022-11-25T15:59:52.122Z,8.60
2022-11-25T16:02:37.861Z,8.60
2022-11-25T16:05:31.961Z,8.60
2022-11-25T16:08:19.579Z,8.60
2022-11-25T16:10:56.622Z,8.60
2022-11-25T16:13:30.481Z,8.60
2022-11-25T16:16:03.534Z,8.70
2022-11-25T16:18:40.734Z,8.60
2022-11-25T16:21:12.585Z,8.60
2022-11-25T16:23:44.588Z,8.60
2022-11-25T16:26:18.890Z,8.60
2022-11-25T16:28:58.269Z,8.70
2022-11-25T16:31:27.346Z,8.70
2022-11-25T16:34:16.298Z,8.70
2022-11-25T16:36:45.058Z,8.70
2022-11-25T16:39:13.870Z,8.70
2022-11-25T16:41:45.622Z,8.80
2022-11-25T16:44:21.444Z,8.70
2022-11-25T16:46:50.097Z,8.80
2022-11-25T16:49:21.188Z,8.80
2022-11-25T16:51:51.143Z,8.70
2022-11-25T16:54:20.649Z,8.70
2022-11-25T16:56:58.763Z,8.70
2022-11-25T16:59:34.234Z,8.70
2022-11-25T17:02:05.584Z,8.80
2022-11-25T17:04:35.859Z,8.80
2022-11-25T17:07:31.607Z,8.70
2022-11-25T17:09:59.116Z,8.70
2022-11-25T17:12:32.272Z,8.70
2022-11-25T17:15:01.176Z,8.70
2022-11-25T17:17:30.270Z,8.70
2022-11-25T17:20:00.259Z,8.70
2022-11-25T17:22:33.361Z,8.70
2022-11-25T17:25:04.890Z,8.70
2022-11-25T17:27:34.238Z,8.70
2022-11-25T17:30:06.650Z,8.70
2022-11-25T17:32:35.761Z,8.70
2022-11-25T17:35:12.069Z,8.70
2022-11-25T17:37:40.982Z,8.70
2022-11-25T17:40:11.148Z,8.70
2022-11-25T17:42:41.429Z,8.70
2022-11-25T17:45:13.882Z,8.70
2022-11-25T17:47:42.929Z,8.70
2022-11-25T17:50:19.792Z,8.60
2022-11-25T17:52:48.658Z,8.60
2022-11-25T17:55:19.847Z,8.60
2022-11-25T17:57:48.999Z,8.50
2022-11-25T18:00:19.929Z,8.40
2022-11-25T18:02:50.020Z,8.40
2022-11-25T18:05:22.624Z,8.40
2022-11-25T18:07:52.814Z,8.40
2022-11-25T18:10:23.832Z,8.30
2022-11-25T18:12:54.930Z,8.40
2022-11-25T18:15:26.670Z,8.40
2022-11-25T18:18:01.190Z,8.40
2022-11-25T18:20:33.238Z,8.30
2022-11-25T18:23:02.681Z,8.20
2022-11-25T18:25:34.948Z,8.10
2022-11-25T18:28:05.579Z,8.10
2022-11-25T18:30:36.947Z,8.10
2022-11-25T18:33:14.019Z,7.90
2022-11-25T18:35:46.339Z,7.90
2022-11-25T18:38:15.371Z,7.90
2022-11-25T18:40:53.200Z,8.00
2022-11-25T18:43:25.147Z,8.00
2022-11-25T18:45:55.889Z,8.00
2022-11-25T18:48:26.994Z,7.90
2022-11-25T18:50:58.616Z,7.90
2022-11-25T18:53:27.349Z,7.90
2022-11-25T18:55:56.397Z,8.00
2022-11-25T18:58:28.370Z,8.00
2022-11-25T19:01:04.898Z,8.00
2022-11-25T19:03:34.467Z,8.00
2022-11-25T19:06:04.778Z,8.10
2022-11-25T19:08:34.021Z,8.20
2022-11-25T19:11:03.209Z,8.20
2022-11-25T19:13:35.232Z,8.20
2022-11-25T19:16:09.418Z,8.20
2022-11-25T19:18:38.712Z,8.20
2022-11-25T19:21:08.737Z,8.20
2022-11-25T19:23:37.729Z,8.20
2022-11-25T19:26:15.056Z,8.10
2022-11-25T19:28:46.817Z,8.20
2022-11-25T19:31:20.591Z,8.10
2022-11-25T19:33:52.081Z,8.10
2022-11-25T19:36:26.470Z,8.10
2022-11-25T19:38:55.654Z,8.10
2022-11-25T19:41:24.540Z,8.10
2022-11-25T19:43:55.007Z,8.10
2022-11-25T19:46:29.983Z,8.10
2022-11-25T19:49:07.559Z,8.10
2022-11-25T19:51:38.137Z,8.10
2022-11-25T19:54:11.203Z,8.20
2022-11-25T19:56:40.476Z,8.20
2022-11-25T19:59:10.170Z,8.10
2022-11-25T20:01:41.846Z,8.10
2022-11-25T20:04:20.559Z,8.10
2022-11-25T20:06:51.648Z,8.10
2022-11-25T20:09:20.628Z,8.20
2022-11-25T20:11:54.343Z,8.20
2022-11-25T20:14:23.048Z,8.20
2022-11-25T20:16:51.924Z,8.20
2022-11-25T20:19:21.513Z,8.20
2022-11-25T20:21:51.584Z,8.20
2022-11-25T20:24:23.747Z,8.20
2022-11-25T20:26:53.955Z,8.20
2022-11-25T20:29:30.030Z,8.20
2022-11-25T20:32:00.136Z,8.10
2022-11-25T20:34:40.407Z,8.10
2022-11-25T20:37:16.297Z,8.00
2022-11-25T20:39:46.821Z,7.90
2022-11-25T20:42:15.536Z,8.00
2022-11-25T20:44:44.461Z,7.90
2022-11-25T20:47:16.828Z,7.90
2022-11-25T20:49:46.397Z,7.80
2022-11-25T20:52:25.631Z,7.80
2022-11-25T20:54:54.837Z,7.80
2022-11-25T20:57:23.504Z,7.80
2022-11-25T20:59:52.900Z,7.80
2022-11-25T21:02:21.954Z,7.80
2022-11-25T21:04:51.507Z,7.80
2022-11-25T21:07:21.533Z,7.80
2022-11-25T21:09:50.328Z,7.80
2022-11-25T21:12:19.766Z,7.80
2022-11-25T21:14:48.509Z,7.70
2022-11-25T21:17:17.058Z,7.70
2022-11-25T21:19:45.889Z,7.60
2022-11-25T21:22:15.791Z,7.60
2022-11-25T21:24:45.953Z,7.60
2022-11-25T21:27:16.847Z,7.60
2022-11-25T21:29:46.849Z,7.60
2022-11-25T21:32:22.271Z,7.60
2022-11-25T21:34:51.149Z,7.60
2022-11-25T21:37:30.948Z,7.60
2022-11-25T21:40:01.557Z,7.60
2022-11-25T21:42:32.740Z,7.50
2022-11-25T21:45:01.422Z,7.50
2022-11-25T21:47:31.458Z,7.50
2022-11-25T21:50:00.350Z,7.40
2022-11-25T21:52:28.922Z,7.30
2022-11-25T21:54:57.968Z,7.20
2022-11-25T21:57:29.923Z,7.10
2022-11-25T21:59:58.479Z,7.10
2022-11-25T22:02:27.092Z,7.10
2022-11-25T22:04:57.269Z,7.00
2022-11-25T22:07:30.573Z,7.10
2022-11-25T22:09:59.608Z,7.00
2022-11-25T22:12:34.304Z,6.80
2022-11-25T22:15:06.118Z,6.60
2022-11-25T22:17:34.939Z,6.50
2022-11-25T22:20:04.888Z,6.40
2022-11-25T22:22:35.573Z,6.20
2022-11-25T22:25:04.944Z,6.20
2022-11-25T22:27:36.739Z,6.20
2022-11-25T22:30:06.273Z,6.10
2022-11-25T22:32:34.850Z,6.00
2022-11-25T22:35:03.437Z,6.00
2022-11-25T22:37:34.139Z,5.90
2022-11-25T22:40:02.736Z,5.90
2022-11-25T22:42:34.379Z,5.80
2022-11-25T22:45:05.478Z,5.80
2022-11-25T22:47:38.017Z,5.80
2022-11-25T22:50:15.808Z,5.70
2022-11-25T22:52:44.391Z,5.60
2022-11-25T22:55:19.489Z,5.50
2022-11-25T22:57:50.810Z,5.30
2022-11-25T23:00:22.654Z,5.30
2022-11-25T23:02:52.544Z,5.20
2022-11-25T23:05:31.918Z,5.10
2022-11-25T23:08:02.320Z,5.00
2022-11-25T23:10:32.680Z,4.90
2022-11-25T23:13:02.719Z,4.80
2022-11-25T23:15:31.543Z,4.70
2022-11-25T23:18:02.178Z,4.60
2022-11-25T23:20:32.388Z,4.70
2022-11-25T23:23:06.438Z,4.70
2022-11-25T23:25:34.969Z,4.70
2022-11-25T23:28:05.118Z,4.70
2022-11-25T23:30:34.288Z,4.60
2022-11-25T23:33:04.835Z,4.60
2022-11-25T23:35:37.029Z,4.50
2022-11-25T23:38:09.377Z,4.40
2022-11-25T23:40:37.919Z,4.50
2022-11-25T23:43:13.276Z,4.40
2022-11-25T23:45:46.962Z,4.40
2022-11-25T23:48:16.188Z,4.40
2022-11-25T23:50:44.759Z,4.30
2022-11-25T23:53:19.928Z,4.30
2022-11-25T23:55:51.998Z,4.30
2022-11-25T23:58:23.329Z,4.30
